sensor_id;sensor_type;location;lat;lon;timestamp;temperature;humidity
65568;DHT22;52211;50.154;8.682;2022-10-16T00:01:54;18.20;75.50
65568;DHT22;52211;50.154;8.682;2022-10-16T00:04:21;18.20;75.40
65568;DHT22;52211;50.154;8.682;2022-10-16T00:06:50;18.30;75.50
65568;DHT22;52211;50.154;8.682;2022-10-16T00:09:21;18.20;75.50
65568;DHT22;52211;50.154;8.682;2022-10-16T00:11:50;18.20;75.60
65568;DHT22;52211;50.154;8.682;2022-10-16T00:14:27;18.20;75.60
65568;DHT22;52211;50.154;8.682;2022-10-16T00:16:56;18.20;75.60
65568;DHT22;52211;50.154;8.682;2022-10-16T00:19:26;18.20;75.60
65568;DHT22;52211;50.154;8.682;2022-10-16T00:21:55;18.30;75.70
65568;DHT22;52211;50.154;8.682;2022-10-16T00:24:22;18.30;75.60
65568;DHT22;52211;50.154;8.682;2022-10-16T00:26:49;18.30;75.70
65568;DHT22;52211;50.154;8.682;2022-10-16T00:29:19;18.40;75.70
65568;DHT22;52211;50.154;8.682;2022-10-16T00:31:51;18.40;75.70
65568;DHT22;52211;50.154;8.682;2022-10-16T00:34:20;18.40;75.70
65568;DHT22;52211;50.154;8.682;2022-10-16T00:36:49;18.40;75.70
65568;DHT22;52211;50.154;8.682;2022-10-16T00:39:16;18.40;75.70
65568;DHT22;52211;50.154;8.682;2022-10-16T00:41:50;18.40;75.70
65568;DHT22;52211;50.154;8.682;2022-10-16T00:47:32;18.40;76.00
65568;DHT22;52211;50.154;8.682;2022-10-16T00:50:18;18.50;76.00
65568;DHT22;52211;50.154;8.682;2022-10-16T00:52:53;18.50;76.50
65568;DHT22;52211;50.154;8.682;2022-10-16T00:55:24;18.50;75.70
65568;DHT22;52211;50.154;8.682;2022-10-16T00:57:54;18.50;75.80
65568;DHT22;52211;50.154;8.682;2022-10-16T01:00:24;18.50;75.70
65568;DHT22;52211;50.154;8.682;2022-10-16T01:02:59;18.50;75.80
65568;DHT22;52211;50.154;8.682;2022-10-16T01:05:38;18.60;76.00
65568;DHT22;52211;50.154;8.682;2022-10-16T01:08:41;18.50;76.00
65568;DHT22;52211;50.154;8.682;2022-10-16T01:11:27;18.60;76.30
65568;DHT22;52211;50.154;8.682;2022-10-16T01:14:28;18.60;75.90
65568;DHT22;52211;50.154;8.682;2022-10-16T01:17:24;18.60;76.10
65568;DHT22;52211;50.154;8.682;2022-10-16T01:20:04;18.60;76.10
65568;DHT22;52211;50.154;8.682;2022-10-16T01:29:24;18.70;76.10
65568;DHT22;52211;50.154;8.682;2022-10-16T01:32:01;18.70;76.20
65568;DHT22;52211;50.154;8.682;2022-10-16T01:35:02;18.70;75.90
65568;DHT22;52211;50.154;8.682;2022-10-16T01:37:42;18.70;76.20
65568;DHT22;52211;50.154;8.682;2022-10-16T01:40:17;18.70;75.80
65568;DHT22;52211;50.154;8.682;2022-10-16T01:42:50;18.70;75.90
65568;DHT22;52211;50.154;8.682;2022-10-16T01:45:36;18.70;75.90
65568;DHT22;52211;50.154;8.682;2022-10-16T01:48:06;18.70;75.90
65568;DHT22;52211;50.154;8.682;2022-10-16T01:50:41;18.70;76.00
65568;DHT22;52211;50.154;8.682;2022-10-16T01:53:12;18.80;76.10
65568;DHT22;52211;50.154;8.682;2022-10-16T01:55:47;18.80;76.00
65568;DHT22;52211;50.154;8.682;2022-10-16T01:58:22;18.80;76.00
65568;DHT22;52211;50.154;8.682;2022-10-16T02:00:52;18.80;75.90
65568;DHT22;52211;50.154;8.682;2022-10-16T02:03:24;18.80;75.90
65568;DHT22;52211;50.154;8.682;2022-10-16T02:05:53;18.80;75.90
65568;DHT22;52211;50.154;8.682;2022-10-16T02:08:28;18.80;75.90
65568;DHT22;52211;50.154;8.682;2022-10-16T02:11:00;18.80;75.90
65568;DHT22;52211;50.154;8.682;2022-10-16T02:16:09;18.80;75.90
65568;DHT22;52211;50.154;8.682;2022-10-16T02:18:39;18.80;75.90
65568;DHT22;52211;50.154;8.682;2022-10-16T02:24:08;18.80;75.90
65568;DHT22;52211;50.154;8.682;2022-10-16T02:26:52;18.80;75.90
65568;DHT22;52211;50.154;8.682;2022-10-16T02:29:30;18.80;75.80
65568;DHT22;52211;50.154;8.682;2022-10-16T02:32:06;18.80;75.80
65568;DHT22;52211;50.154;8.682;2022-10-16T02:34:37;18.80;75.80
65568;DHT22;52211;50.154;8.682;2022-10-16T02:37:07;18.70;75.80
65568;DHT22;52211;50.154;8.682;2022-10-16T02:39:35;18.70;75.80
65568;DHT22;52211;50.154;8.682;2022-10-16T02:42:01;18.70;75.70
65568;DHT22;52211;50.154;8.682;2022-10-16T02:44:28;18.70;75.70
65568;DHT22;52211;50.154;8.682;2022-10-16T02:46:56;18.70;75.70
65568;DHT22;52211;50.154;8.682;2022-10-16T02:49:28;18.70;75.70
65568;DHT22;52211;50.154;8.682;2022-10-16T02:51:59;18.70;75.60
65568;DHT22;52211;50.154;8.682;2022-10-16T02:54:28;18.70;76.20
65568;DHT22;52211;50.154;8.682;2022-10-16T02:56:55;18.70;75.60
65568;DHT22;52211;50.154;8.682;2022-10-16T02:59:22;18.70;75.60
65568;DHT22;52211;50.154;8.682;2022-10-16T03:01:53;18.60;75.50
65568;DHT22;52211;50.154;8.682;2022-10-16T03:04:24;18.70;75.60
65568;DHT22;52211;50.154;8.682;2022-10-16T03:06:54;18.60;75.50
65568;DHT22;52211;50.154;8.682;2022-10-16T03:09:22;18.60;75.50
65568;DHT22;52211;50.154;8.682;2022-10-16T03:11:51;18.60;75.50
65568;DHT22;52211;50.154;8.682;2022-10-16T03:14:23;18.60;75.50
65568;DHT22;52211;50.154;8.682;2022-10-16T03:16:54;18.50;75.50
65568;DHT22;52211;50.154;8.682;2022-10-16T03:19:24;18.50;75.50
65568;DHT22;52211;50.154;8.682;2022-10-16T03:21:50;18.50;75.50
65568;DHT22;52211;50.154;8.682;2022-10-16T03:24:24;18.50;75.60
65568;DHT22;52211;50.154;8.682;2022-10-16T03:26:53;18.50;75.60
65568;DHT22;52211;50.154;8.682;2022-10-16T03:29:20;18.50;75.60
65568;DHT22;52211;50.154;8.682;2022-10-16T03:31:49;18.50;75.60
65568;DHT22;52211;50.154;8.682;2022-10-16T03:34:16;18.50;75.70
65568;DHT22;52211;50.154;8.682;2022-10-16T03:36:42;18.50;75.70
65568;DHT22;52211;50.154;8.682;2022-10-16T03:39:11;18.50;75.70
65568;DHT22;52211;50.154;8.682;2022-10-16T03:41:40;18.40;75.70
65568;DHT22;52211;50.154;8.682;2022-10-16T03:44:07;18.50;75.70
65568;DHT22;52211;50.154;8.682;2022-10-16T03:46:38;18.50;75.70
65568;DHT22;52211;50.154;8.682;2022-10-16T03:49:07;18.50;75.70
65568;DHT22;52211;50.154;8.682;2022-10-16T03:51:39;18.50;75.70
65568;DHT22;52211;50.154;8.682;2022-10-16T03:54:06;18.40;75.60
65568;DHT22;52211;50.154;8.682;2022-10-16T03:56:35;18.50;75.70
65568;DHT22;52211;50.154;8.682;2022-10-16T03:59:02;18.40;75.60
65568;DHT22;52211;50.154;8.682;2022-10-16T04:01:31;18.50;75.60
65568;DHT22;52211;50.154;8.682;2022-10-16T04:04:00;18.50;75.70
65568;DHT22;52211;50.154;8.682;2022-10-16T04:06:27;18.40;75.60
65568;DHT22;52211;50.154;8.682;2022-10-16T04:08:59;18.50;75.70
65568;DHT22;52211;50.154;8.682;2022-10-16T04:11:28;18.40;75.70
65568;DHT22;52211;50.154;8.682;2022-10-16T04:13:55;18.50;75.70
65568;DHT22;52211;50.154;8.682;2022-10-16T04:16:22;18.40;75.60
65568;DHT22;52211;50.154;8.682;2022-10-16T04:18:51;18.40;75.60
65568;DHT22;52211;50.154;8.682;2022-10-16T04:21:20;18.40;75.70
65568;DHT22;52211;50.154;8.682;2022-10-16T04:23:47;18.40;75.70
65568;DHT22;52211;50.154;8.682;2022-10-16T04:26:18;18.40;75.70
65568;DHT22;52211;50.154;8.682;2022-10-16T04:28:47;18.40;75.70
65568;DHT22;52211;50.154;8.682;2022-10-16T04:31:14;18.50;75.80
65568;DHT22;52211;50.154;8.682;2022-10-16T04:33:42;18.50;75.60
65568;DHT22;52211;50.154;8.682;2022-10-16T04:36:10;18.50;75.60
65568;DHT22;52211;50.154;8.682;2022-10-16T04:38:36;18.50;75.60
65568;DHT22;52211;50.154;8.682;2022-10-16T04:41:04;18.50;75.70
65568;DHT22;52211;50.154;8.682;2022-10-16T04:43:30;18.50;75.70
65568;DHT22;52211;50.154;8.682;2022-10-16T04:45:57;18.50;75.80
65568;DHT22;52211;50.154;8.682;2022-10-16T04:48:24;18.50;75.70
65568;DHT22;52211;50.154;8.682;2022-10-16T04:50:53;18.50;75.70
65568;DHT22;52211;50.154;8.682;2022-10-16T04:53:22;18.50;75.80
65568;DHT22;52211;50.154;8.682;2022-10-16T04:55:51;18.50;75.70
65568;DHT22;52211;50.154;8.682;2022-10-16T04:58:23;18.50;75.80
65568;DHT22;52211;50.154;8.682;2022-10-16T05:00:52;18.40;75.70
65568;DHT22;52211;50.154;8.682;2022-10-16T05:03:22;18.50;75.70
65568;DHT22;52211;50.154;8.682;2022-10-16T05:05:51;18.50;75.70
65568;DHT22;52211;50.154;8.682;2022-10-16T05:08:20;18.50;75.80
65568;DHT22;52211;50.154;8.682;2022-10-16T05:10:51;18.40;75.70
65568;DHT22;52211;50.154;8.682;2022-10-16T05:13:18;18.50;75.80
65568;DHT22;52211;50.154;8.682;2022-10-16T05:15:48;18.50;75.70
65568;DHT22;52211;50.154;8.682;2022-10-16T05:18:17;18.40;75.70
65568;DHT22;52211;50.154;8.682;2022-10-16T05:20:46;18.50;75.70
65568;DHT22;52211;50.154;8.682;2022-10-16T05:23:13;18.50;76.30
65568;DHT22;52211;50.154;8.682;2022-10-16T05:25:40;18.50;75.80
65568;DHT22;52211;50.154;8.682;2022-10-16T05:28:09;18.50;75.70
65568;DHT22;52211;50.154;8.682;2022-10-16T05:30:37;18.50;75.70
65568;DHT22;52211;50.154;8.682;2022-10-16T05:33:08;18.50;76.00
65568;DHT22;52211;50.154;8.682;2022-10-16T05:35:35;18.50;75.80
65568;DHT22;52211;50.154;8.682;2022-10-16T05:38:04;18.50;75.70
65568;DHT22;52211;50.154;8.682;2022-10-16T05:40:34;18.50;75.60
65568;DHT22;52211;50.154;8.682;2022-10-16T05:43:01;18.50;75.60
65568;DHT22;52211;50.154;8.682;2022-10-16T05:45:30;18.50;75.70
65568;DHT22;52211;50.154;8.682;2022-10-16T05:47:56;18.50;75.70
65568;DHT22;52211;50.154;8.682;2022-10-16T05:50:23;18.50;75.70
65568;DHT22;52211;50.154;8.682;2022-10-16T05:52:52;18.40;75.70
65568;DHT22;52211;50.154;8.682;2022-10-16T05:55:26;18.40;75.70
65568;DHT22;52211;50.154;8.682;2022-10-16T05:57:55;18.40;75.70
65568;DHT22;52211;50.154;8.682;2022-10-16T06:00:22;18.50;75.80
65568;DHT22;52211;50.154;8.682;2022-10-16T06:02:48;18.50;75.80
65568;DHT22;52211;50.154;8.682;2022-10-16T06:05:15;18.50;75.80
65568;DHT22;52211;50.154;8.682;2022-10-16T06:07:42;18.50;75.80
65568;DHT22;52211;50.154;8.682;2022-10-16T06:10:11;18.50;75.80
65568;DHT22;52211;50.154;8.682;2022-10-16T06:12:42;18.50;75.80
65568;DHT22;52211;50.154;8.682;2022-10-16T06:15:09;18.50;75.70
65568;DHT22;52211;50.154;8.682;2022-10-16T06:17:36;18.50;75.70
65568;DHT22;52211;50.154;8.682;2022-10-16T06:20:03;18.50;75.70
65568;DHT22;52211;50.154;8.682;2022-10-16T06:22:30;18.50;75.70
65568;DHT22;52211;50.154;8.682;2022-10-16T06:25:01;18.50;75.70
65568;DHT22;52211;50.154;8.682;2022-10-16T06:27:31;18.50;75.70
65568;DHT22;52211;50.154;8.682;2022-10-16T06:30:00;18.50;75.70
65568;DHT22;52211;50.154;8.682;2022-10-16T06:32:30;18.60;75.80
65568;DHT22;52211;50.154;8.682;2022-10-16T06:34:56;18.60;75.80
65568;DHT22;52211;50.154;8.682;2022-10-16T06:37:23;18.60;75.80
65568;DHT22;52211;50.154;8.682;2022-10-16T06:39:56;18.60;75.80
65568;DHT22;52211;50.154;8.682;2022-10-16T06:42:30;18.60;75.80
65568;DHT22;52211;50.154;8.682;2022-10-16T06:44:59;18.60;75.80
65568;DHT22;52211;50.154;8.682;2022-10-16T06:47:27;18.60;75.80
65568;DHT22;52211;50.154;8.682;2022-10-16T06:49:54;18.60;75.80
65568;DHT22;52211;50.154;8.682;2022-10-16T06:52:22;18.70;75.80
65568;DHT22;52211;50.154;8.682;2022-10-16T06:54:49;18.70;75.80
65568;DHT22;52211;50.154;8.682;2022-10-16T06:57:16;18.70;75.90
65568;DHT22;52211;50.154;8.682;2022-10-16T06:59:45;18.70;75.80
65568;DHT22;52211;50.154;8.682;2022-10-16T07:02:14;18.70;75.80
65568;DHT22;52211;50.154;8.682;2022-10-16T07:04:45;18.70;75.90
65568;DHT22;52211;50.154;8.682;2022-10-16T07:07:14;18.70;75.90
65568;DHT22;52211;50.154;8.682;2022-10-16T07:09:48;18.70;75.90
65568;DHT22;52211;50.154;8.682;2022-10-16T07:12:15;18.70;75.90
65568;DHT22;52211;50.154;8.682;2022-10-16T07:14:47;18.80;75.90
65568;DHT22;52211;50.154;8.682;2022-10-16T07:17:13;18.80;76.50
65568;DHT22;52211;50.154;8.682;2022-10-16T07:19:40;18.80;75.90
65568;DHT22;52211;50.154;8.682;2022-10-16T07:22:09;18.90;76.00
65568;DHT22;52211;50.154;8.682;2022-10-16T07:24:36;18.90;75.90
65568;DHT22;52211;50.154;8.682;2022-10-16T07:27:05;18.90;75.90
65568;DHT22;52211;50.154;8.682;2022-10-16T07:29:37;18.90;75.90
65568;DHT22;52211;50.154;8.682;2022-10-16T07:32:04;18.90;75.90
65568;DHT22;52211;50.154;8.682;2022-10-16T07:34:33;19.00;76.00
65568;DHT22;52211;50.154;8.682;2022-10-16T07:37:05;19.00;76.00
65568;DHT22;52211;50.154;8.682;2022-10-16T07:39:34;19.00;75.90
65568;DHT22;52211;50.154;8.682;2022-10-16T07:42:03;19.00;75.90
65568;DHT22;52211;50.154;8.682;2022-10-16T07:44:30;19.10;75.90
65568;DHT22;52211;50.154;8.682;2022-10-16T07:47:02;19.10;75.90
65568;DHT22;52211;50.154;8.682;2022-10-16T07:49:29;19.10;75.80
65568;DHT22;52211;50.154;8.682;2022-10-16T07:51:56;19.10;75.80
65568;DHT22;52211;50.154;8.682;2022-10-16T07:54:25;19.10;75.80
65568;DHT22;52211;50.154;8.682;2022-10-16T07:56:54;19.10;75.80
65568;DHT22;52211;50.154;8.682;2022-10-16T07:59:21;19.20;75.80
65568;DHT22;52211;50.154;8.682;2022-10-16T08:01:51;19.20;75.90
65568;DHT22;52211;50.154;8.682;2022-10-16T08:04:18;19.20;75.80
65568;DHT22;52211;50.154;8.682;2022-10-16T08:06:45;19.20;75.80
65568;DHT22;52211;50.154;8.682;2022-10-16T08:09:12;19.20;75.80
65568;DHT22;52211;50.154;8.682;2022-10-16T08:11:43;19.20;75.80
65568;DHT22;52211;50.154;8.682;2022-10-16T08:14:12;19.20;75.70
65568;DHT22;52211;50.154;8.682;2022-10-16T08:16:39;19.30;75.70
65568;DHT22;52211;50.154;8.682;2022-10-16T08:19:08;19.30;75.70
65568;DHT22;52211;50.154;8.682;2022-10-16T08:21:35;19.20;75.60
65568;DHT22;52211;50.154;8.682;2022-10-16T08:24:04;19.30;75.60
65568;DHT22;52211;50.154;8.682;2022-10-16T08:26:33;19.30;75.60
65568;DHT22;52211;50.154;8.682;2022-10-16T08:29:05;19.30;75.50
65568;DHT22;52211;50.154;8.682;2022-10-16T08:31:34;19.30;75.50
65568;DHT22;52211;50.154;8.682;2022-10-16T08:34:05;19.30;75.50
65568;DHT22;52211;50.154;8.682;2022-10-16T08:36:32;19.30;75.50
65568;DHT22;52211;50.154;8.682;2022-10-16T08:39:01;19.30;75.50
65568;DHT22;52211;50.154;8.682;2022-10-16T08:41:55;19.30;75.40
65568;DHT22;52211;50.154;8.682;2022-10-16T08:47:48;19.30;75.40
65568;DHT22;52211;50.154;8.682;2022-10-16T08:50:32;19.30;75.60
65568;DHT22;52211;50.154;8.682;2022-10-16T08:53:07;19.30;75.40
65568;DHT22;52211;50.154;8.682;2022-10-16T08:58:18;19.30;75.50
65568;DHT22;52211;50.154;8.682;2022-10-16T09:00:54;19.30;76.00
65568;DHT22;52211;50.154;8.682;2022-10-16T09:09:43;19.30;75.30
65568;DHT22;52211;50.154;8.682;2022-10-16T09:15:13;19.20;75.60
65568;DHT22;52211;50.154;8.682;2022-10-16T09:17:55;19.20;75.70
65568;DHT22;52211;50.154;8.682;2022-10-16T09:23:40;19.20;75.80
65568;DHT22;52211;50.154;8.682;2022-10-16T09:26:12;19.20;75.70
65568;DHT22;52211;50.154;8.682;2022-10-16T09:28:41;19.20;75.90
65568;DHT22;52211;50.154;8.682;2022-10-16T09:31:20;19.20;75.80
65568;DHT22;52211;50.154;8.682;2022-10-16T09:33:53;19.20;75.80
65568;DHT22;52211;50.154;8.682;2022-10-16T09:36:25;19.20;75.60
65568;DHT22;52211;50.154;8.682;2022-10-16T09:39:09;19.20;75.50
65568;DHT22;52211;50.154;8.682;2022-10-16T09:41:43;19.20;75.60
65568;DHT22;52211;50.154;8.682;2022-10-16T09:44:29;19.20;75.50
65568;DHT22;52211;50.154;8.682;2022-10-16T09:49:28;19.10;75.50
65568;DHT22;52211;50.154;8.682;2022-10-16T09:52:25;19.20;75.50
65568;DHT22;52211;50.154;8.682;2022-10-16T09:54:57;19.10;75.50
65568;DHT22;52211;50.154;8.682;2022-10-16T09:57:26;19.10;75.50
65568;DHT22;52211;50.154;8.682;2022-10-16T09:59:59;19.10;75.60
65568;DHT22;52211;50.154;8.682;2022-10-16T10:02:38;19.10;75.70
65568;DHT22;52211;50.154;8.682;2022-10-16T10:07:57;19.20;75.90
65568;DHT22;52211;50.154;8.682;2022-10-16T10:10:41;19.20;75.80
65568;DHT22;52211;50.154;8.682;2022-10-16T10:13:27;19.20;75.70
65568;DHT22;52211;50.154;8.682;2022-10-16T10:15:56;19.20;75.80
65568;DHT22;52211;50.154;8.682;2022-10-16T10:18:23;19.30;75.90
65568;DHT22;52211;50.154;8.682;2022-10-16T10:21:00;19.30;76.00
65568;DHT22;52211;50.154;8.682;2022-10-16T10:23:29;19.40;76.20
65568;DHT22;52211;50.154;8.682;2022-10-16T10:26:15;19.50;76.20
65568;DHT22;52211;50.154;8.682;2022-10-16T10:29:06;19.50;76.10
65568;DHT22;52211;50.154;8.682;2022-10-16T10:32:01;19.80;76.60
65568;DHT22;52211;50.154;8.682;2022-10-16T10:38:16;20.50;76.80
65568;DHT22;52211;50.154;8.682;2022-10-16T10:41:23;20.80;76.00
65568;DHT22;52211;50.154;8.682;2022-10-16T10:44:29;21.00;74.80
65568;DHT22;52211;50.154;8.682;2022-10-16T10:50:17;21.20;73.90
65568;DHT22;52211;50.154;8.682;2022-10-16T10:53:09;21.20;74.00
65568;DHT22;52211;50.154;8.682;2022-10-16T10:59:25;21.30;74.10
65568;DHT22;52211;50.154;8.682;2022-10-16T11:02:26;21.50;74.30
65568;DHT22;52211;50.154;8.682;2022-10-16T11:08:24;21.70;73.40
65568;DHT22;52211;50.154;8.682;2022-10-16T11:11:00;21.70;73.40
65568;DHT22;52211;50.154;8.682;2022-10-16T11:13:58;21.80;73.10
65568;DHT22;52211;50.154;8.682;2022-10-16T11:16:43;21.70;72.70
65568;DHT22;52211;50.154;8.682;2022-10-16T11:19:46;21.80;72.90
65568;DHT22;52211;50.154;8.682;2022-10-16T11:25:32;22.20;74.10
65568;DHT22;52211;50.154;8.682;2022-10-16T11:28:13;22.50;73.80
65568;DHT22;52211;50.154;8.682;2022-10-16T11:39:50;24.20;72.40
65568;DHT22;52211;50.154;8.682;2022-10-16T11:42:37;24.50;71.10
65568;DHT22;52211;50.154;8.682;2022-10-16T11:45:34;24.60;70.50
65568;DHT22;52211;50.154;8.682;2022-10-16T11:48:11;24.50;68.60
65568;DHT22;52211;50.154;8.682;2022-10-16T11:56:21;24.00;68.60
65568;DHT22;52211;50.154;8.682;2022-10-16T12:01:46;23.60;68.80
65568;DHT22;52211;50.154;8.682;2022-10-16T12:07:17;23.60;70.00
65568;DHT22;52211;50.154;8.682;2022-10-16T12:09:49;23.70;70.90
65568;DHT22;52211;50.154;8.682;2022-10-16T12:18:03;24.90;70.90
65568;DHT22;52211;50.154;8.682;2022-10-16T12:20:34;25.40;70.20
65568;DHT22;52211;50.154;8.682;2022-10-16T12:23:16;25.70;69.20
65568;DHT22;52211;50.154;8.682;2022-10-16T12:25:54;26.00;68.50
65568;DHT22;52211;50.154;8.682;2022-10-16T12:28:33;26.30;67.10
65568;DHT22;52211;50.154;8.682;2022-10-16T12:31:08;26.50;65.60
65568;DHT22;52211;50.154;8.682;2022-10-16T12:33:52;26.70;66.30
65568;DHT22;52211;50.154;8.682;2022-10-16T12:36:31;26.90;66.20
65568;DHT22;52211;50.154;8.682;2022-10-16T12:39:03;27.10;66.00
65568;DHT22;52211;50.154;8.682;2022-10-16T12:44:02;27.60;65.20
65568;DHT22;52211;50.154;8.682;2022-10-16T12:46:38;27.50;64.20
65568;DHT22;52211;50.154;8.682;2022-10-16T12:51:42;27.30;63.20
65568;DHT22;52211;50.154;8.682;2022-10-16T12:54:29;27.10;63.40
65568;DHT22;52211;50.154;8.682;2022-10-16T13:06:19;26.20;63.30
65568;DHT22;52211;50.154;8.682;2022-10-16T13:18:04;26.30;63.10
65568;DHT22;52211;50.154;8.682;2022-10-16T13:24:15;26.00;62.80
65568;DHT22;52211;50.154;8.682;2022-10-16T13:29:41;25.50;62.50
65568;DHT22;52211;50.154;8.682;2022-10-16T13:32:10;25.30;63.60
65568;DHT22;52211;50.154;8.682;2022-10-16T13:34:46;25.20;63.40
65568;DHT22;52211;50.154;8.682;2022-10-16T13:37:20;25.00;63.00
65568;DHT22;52211;50.154;8.682;2022-10-16T13:39:51;24.90;63.60
65568;DHT22;52211;50.154;8.682;2022-10-16T13:42:34;24.70;63.70
65568;DHT22;52211;50.154;8.682;2022-10-16T13:45:04;24.60;63.90
65568;DHT22;52211;50.154;8.682;2022-10-16T13:47:31;24.60;64.60
65568;DHT22;52211;50.154;8.682;2022-10-16T13:50:00;24.60;64.00
65568;DHT22;52211;50.154;8.682;2022-10-16T13:52:31;24.60;64.20
65568;DHT22;52211;50.154;8.682;2022-10-16T13:54:58;24.50;64.10
65568;DHT22;52211;50.154;8.682;2022-10-16T13:57:30;24.50;64.10
65568;DHT22;52211;50.154;8.682;2022-10-16T13:59:59;24.40;64.00
65568;DHT22;52211;50.154;8.682;2022-10-16T14:02:36;24.40;64.10
65568;DHT22;52211;50.154;8.682;2022-10-16T14:05:11;24.30;63.80
65568;DHT22;52211;50.154;8.682;2022-10-16T14:07:43;24.20;63.90
65568;DHT22;52211;50.154;8.682;2022-10-16T14:10:28;24.10;63.90
65568;DHT22;52211;50.154;8.682;2022-10-16T14:13:01;24.00;63.50
65568;DHT22;52211;50.154;8.682;2022-10-16T14:15:35;23.90;64.30
65568;DHT22;52211;50.154;8.682;2022-10-16T14:18:03;23.90;64.10
65568;DHT22;52211;50.154;8.682;2022-10-16T14:20:36;23.80;64.30
65568;DHT22;52211;50.154;8.682;2022-10-16T14:23:32;23.70;64.30
65568;DHT22;52211;50.154;8.682;2022-10-16T14:28:40;23.60;64.30
65568;DHT22;52211;50.154;8.682;2022-10-16T14:33:57;23.40;64.40
65568;DHT22;52211;50.154;8.682;2022-10-16T14:36:29;23.40;64.80
65568;DHT22;52211;50.154;8.682;2022-10-16T14:39:03;23.30;64.90
65568;DHT22;52211;50.154;8.682;2022-10-16T14:41:41;23.30;65.00
65568;DHT22;52211;50.154;8.682;2022-10-16T14:44:12;23.30;65.00
65568;DHT22;52211;50.154;8.682;2022-10-16T14:46:41;23.20;65.40
65568;DHT22;52211;50.154;8.682;2022-10-16T14:51:42;23.20;65.40
65568;DHT22;52211;50.154;8.682;2022-10-16T14:54:12;23.20;65.50
65568;DHT22;52211;50.154;8.682;2022-10-16T14:56:57;23.20;65.50
65568;DHT22;52211;50.154;8.682;2022-10-16T14:59:34;23.20;65.40
65568;DHT22;52211;50.154;8.682;2022-10-16T15:02:20;23.20;65.50
65568;DHT22;52211;50.154;8.682;2022-10-16T15:04:56;23.20;65.60
65568;DHT22;52211;50.154;8.682;2022-10-16T15:07:27;23.20;65.70
65568;DHT22;52211;50.154;8.682;2022-10-16T15:09:56;23.20;65.80
65568;DHT22;52211;50.154;8.682;2022-10-16T15:12:28;23.20;65.80
65568;DHT22;52211;50.154;8.682;2022-10-16T15:14:57;23.10;65.70
65568;DHT22;52211;50.154;8.682;2022-10-16T15:17:31;23.10;65.70
65568;DHT22;52211;50.154;8.682;2022-10-16T15:20:00;23.20;65.80
65568;DHT22;52211;50.154;8.682;2022-10-16T15:22:29;23.10;65.80
65568;DHT22;52211;50.154;8.682;2022-10-16T15:24:58;23.10;65.60
65568;DHT22;52211;50.154;8.682;2022-10-16T15:27:27;23.10;65.60
65568;DHT22;52211;50.154;8.682;2022-10-16T15:29:54;23.20;65.70
65568;DHT22;52211;50.154;8.682;2022-10-16T15:32:23;23.10;65.60
65568;DHT22;52211;50.154;8.682;2022-10-16T15:34:57;23.10;65.80
65568;DHT22;52211;50.154;8.682;2022-10-16T15:37:26;23.10;65.80
65568;DHT22;52211;50.154;8.682;2022-10-16T15:39:53;23.10;65.80
65568;DHT22;52211;50.154;8.682;2022-10-16T15:42:20;23.00;65.80
65568;DHT22;52211;50.154;8.682;2022-10-16T15:44:47;23.00;65.80
65568;DHT22;52211;50.154;8.682;2022-10-16T15:47:16;23.00;65.90
65568;DHT22;52211;50.154;8.682;2022-10-16T15:49:45;23.00;66.00
65568;DHT22;52211;50.154;8.682;2022-10-16T15:52:12;22.90;66.10
65568;DHT22;52211;50.154;8.682;2022-10-16T15:54:43;22.90;66.20
65568;DHT22;52211;50.154;8.682;2022-10-16T15:57:10;22.90;66.30
65568;DHT22;52211;50.154;8.682;2022-10-16T15:59:41;22.80;66.40
65568;DHT22;52211;50.154;8.682;2022-10-16T16:02:09;22.80;66.50
65568;DHT22;52211;50.154;8.682;2022-10-16T16:04:38;22.80;66.80
65568;DHT22;52211;50.154;8.682;2022-10-16T16:07:10;22.70;66.50
65568;DHT22;52211;50.154;8.682;2022-10-16T16:09:39;22.60;66.50
65568;DHT22;52211;50.154;8.682;2022-10-16T16:12:10;22.60;66.60
65568;DHT22;52211;50.154;8.682;2022-10-16T16:14:39;22.60;66.70
65568;DHT22;52211;50.154;8.682;2022-10-16T16:17:06;22.50;66.70
65568;DHT22;52211;50.154;8.682;2022-10-16T16:19:38;22.50;66.80
65568;DHT22;52211;50.154;8.682;2022-10-16T16:22:07;22.50;66.90
65568;DHT22;52211;50.154;8.682;2022-10-16T16:24:43;22.40;67.60
65568;DHT22;52211;50.154;8.682;2022-10-16T16:27:12;22.40;67.00
65568;DHT22;52211;50.154;8.682;2022-10-16T16:29:44;22.40;67.00
65568;DHT22;52211;50.154;8.682;2022-10-16T16:32:13;22.30;67.10
65568;DHT22;52211;50.154;8.682;2022-10-16T16:34:42;22.30;67.10
65568;DHT22;52211;50.154;8.682;2022-10-16T16:37:09;22.30;67.20
65568;DHT22;52211;50.154;8.682;2022-10-16T16:39:38;22.20;67.20
65568;DHT22;52211;50.154;8.682;2022-10-16T16:42:05;22.20;67.90
65568;DHT22;52211;50.154;8.682;2022-10-16T16:44:33;22.10;67.30
65568;DHT22;52211;50.154;8.682;2022-10-16T16:47:05;22.10;67.40
65568;DHT22;52211;50.154;8.682;2022-10-16T16:49:32;22.00;67.50
65568;DHT22;52211;50.154;8.682;2022-10-16T16:52:01;22.00;67.50
65568;DHT22;52211;50.154;8.682;2022-10-16T16:54:30;21.90;67.60
65568;DHT22;52211;50.154;8.682;2022-10-16T16:56:57;21.90;67.70
65568;DHT22;52211;50.154;8.682;2022-10-16T16:59:26;21.80;67.80
65568;DHT22;52211;50.154;8.682;2022-10-16T17:02:01;21.80;67.80
65568;DHT22;52211;50.154;8.682;2022-10-16T17:04:31;21.70;67.90
65568;DHT22;52211;50.154;8.682;2022-10-16T17:07:03;21.60;67.90
65568;DHT22;52211;50.154;8.682;2022-10-16T17:09:32;21.60;68.00
65568;DHT22;52211;50.154;8.682;2022-10-16T17:11:59;21.60;68.10
65568;DHT22;52211;50.154;8.682;2022-10-16T17:14:29;21.50;68.10
65568;DHT22;52211;50.154;8.682;2022-10-16T17:16:56;21.50;68.10
65568;DHT22;52211;50.154;8.682;2022-10-16T17:19:27;21.40;68.10
65568;DHT22;52211;50.154;8.682;2022-10-16T17:21:56;21.40;68.30
65568;DHT22;52211;50.154;8.682;2022-10-16T17:24:26;21.40;68.30
65568;DHT22;52211;50.154;8.682;2022-10-16T17:26:52;21.30;68.40
65568;DHT22;52211;50.154;8.682;2022-10-16T17:29:19;21.30;68.50
65568;DHT22;52211;50.154;8.682;2022-10-16T17:31:46;21.30;68.60
65568;DHT22;52211;50.154;8.682;2022-10-16T17:34:17;21.20;68.50
65568;DHT22;52211;50.154;8.682;2022-10-16T17:36:47;21.20;68.60
65568;DHT22;52211;50.154;8.682;2022-10-16T17:39:15;21.10;68.70
65568;DHT22;52211;50.154;8.682;2022-10-16T17:41:51;21.10;68.70
65568;DHT22;52211;50.154;8.682;2022-10-16T17:44:20;21.20;68.80
65568;DHT22;52211;50.154;8.682;2022-10-16T17:46:51;21.10;68.80
65568;DHT22;52211;50.154;8.682;2022-10-16T17:49:21;21.10;68.90
65568;DHT22;52211;50.154;8.682;2022-10-16T17:51:55;21.00;68.90
65568;DHT22;52211;50.154;8.682;2022-10-16T17:54:22;21.00;68.90
65568;DHT22;52211;50.154;8.682;2022-10-16T17:56:48;21.00;69.00
65568;DHT22;52211;50.154;8.682;2022-10-16T17:59:15;20.90;69.00
65568;DHT22;52211;50.154;8.682;2022-10-16T18:01:51;20.80;69.00